Private Wetterstation Sandau
Wetterdaten: Donnerstag, 03.05.2012
Datum Zeit Temp. A. Feuchte A. Luftdruck Regen Wind Richtung Richtung Taupunkt Windchill
03.05.2012 00:01 15,3 C 51 % 1013,4 hPa 0,0 l/m 6,1 km/h (2 Bft) O-SO 112 5,2 C 15,3 C
03.05.2012 00:06 15,3 C 51 % 1013,5 hPa 0,0 l/m 2,2 km/h (1 Bft) O-NO 67 5,2 C 15,3 C
03.05.2012 00:11 15,3 C 51 % 1013,5 hPa 0,0 l/m 0,0 km/h (0 Bft) O 90 5,2 C 15,3 C
03.05.2012 00:16 15,3 C 51 % 1013,5 hPa 0,0 l/m 2,5 km/h (1 Bft) O-NO 67 5,2 C 15,3 C
03.05.2012 00:21 15,3 C 52 % 1013,5 hPa 0,0 l/m 1,1 km/h (1 Bft) O-NO 67 5,5 C 15,3 C
03.05.2012 00:26 15,3 C 52 % 1013,5 hPa 0,0 l/m 1,1 km/h (1 Bft) O-NO 67 5,5 C 15,3 C
03.05.2012 00:31 15,3 C 52 % 1013,7 hPa 0,0 l/m 3,6 km/h (1 Bft) W-SW 247 5,5 C 15,3 C
03.05.2012 00:36 15,4 C 52 % 1013,7 hPa 0,0 l/m 2,9 km/h (1 Bft) W-SW 247 5,6 C 15,4 C
03.05.2012 00:41 15,5 C 52 % 1013,8 hPa 0,0 l/m 0,0 km/h (0 Bft) W 270 5,7 C 15,5 C
03.05.2012 00:46 15,6 C 53 % 1013,5 hPa 0,0 l/m 0,0 km/h (0 Bft) W 270 6,1 C 15,6 C
03.05.2012 00:51 15,5 C 53 % 1013,3 hPa 0,0 l/m 5,0 km/h (1 Bft) O-NO 67 6,0 C 15,5 C
03.05.2012 00:56 15,3 C 53 % 1013,3 hPa 0,0 l/m 0,0 km/h (0 Bft) O-SO 112 5,8 C 15,3 C
03.05.2012 01:01 15,2 C 53 % 1013,2 hPa 0,0 l/m 3,2 km/h (1 Bft) W-NW 292 5,7 C 15,2 C
03.05.2012 01:06 15,2 C 54 % 1013,2 hPa 0,0 l/m 1,4 km/h (1 Bft) N-NO 22 6,0 C 15,2 C
03.05.2012 01:11 14,9 C 54 % 1013,2 hPa 0,0 l/m 5,0 km/h (1 Bft) NW 315 5,7 C 14,9 C
03.05.2012 01:16 14,8 C 55 % 1012,8 hPa 0,0 l/m 4,3 km/h (1 Bft) NO 45 5,8 C 14,8 C
03.05.2012 01:21 14,5 C 56 % 1012,8 hPa 0,0 l/m 1,4 km/h (1 Bft) NO 45 5,8 C 14,5 C
03.05.2012 01:26 14,3 C 56 % 1012,8 hPa 0,0 l/m 2,5 km/h (1 Bft) O-NO 67 5,6 C 14,3 C
03.05.2012 01:31 14,1 C 56 % 1012,7 hPa 0,0 l/m 3,2 km/h (1 Bft) NO 45 5,5 C 14,1 C
03.05.2012 01:36 14,1 C 55 % 1012,7 hPa 0,0 l/m 4,7 km/h (1 Bft) N-NO 22 5,2 C 14,1 C
03.05.2012 01:41 14,0 C 56 % 1012,6 hPa 0,0 l/m 0,0 km/h (0 Bft) N 360 5,4 C 14,0 C
03.05.2012 01:46 13,9 C 56 % 1012,8 hPa 0,0 l/m 0,0 km/h (0 Bft) NO 45 5,3 C 13,9 C
03.05.2012 01:51 13,9 C 56 % 1012,8 hPa 0,0 l/m 0,0 km/h (0 Bft) N 360 5,3 C 13,9 C
03.05.2012 01:56 13,9 C 56 % 1012,5 hPa 0,0 l/m 2,2 km/h (1 Bft) N 360 5,3 C 13,9 C
03.05.2012 02:01 13,8 C 56 % 1012,7 hPa 0,0 l/m 0,0 km/h (0 Bft) NO 45 5,2 C 13,8 C
03.05.2012 02:06 13,6 C 57 % 1012,5 hPa 0,0 l/m 3,6 km/h (1 Bft) N-NO 22 5,2 C 13,6 C
03.05.2012 02:11 13,6 C 57 % 1012,3 hPa 0,0 l/m 2,5 km/h (1 Bft) O-NO 67 5,2 C 13,6 C
03.05.2012 02:16 13,5 C 57 % 1012,7 hPa 0,0 l/m 0,0 km/h (0 Bft) SO 135 5,2 C 13,5 C
03.05.2012 02:21 13,6 C 57 % 1012,4 hPa 0,0 l/m 2,5 km/h (1 Bft) O 90 5,2 C 13,6 C
03.05.2012 02:26 13,6 C 56 % 1012,5 hPa 0,0 l/m 0,0 km/h (0 Bft) NO 45 5,0 C 13,6 C
03.05.2012 02:31 13,6 C 56 % 1012,3 hPa 0,0 l/m 0,0 km/h (0 Bft) O 90 5,0 C 13,6 C
03.05.2012 02:36 13,6 C 57 % 1012,1 hPa 0,0 l/m 0,0 km/h (0 Bft) NO 45 5,2 C 13,6 C
03.05.2012 02:41 13,6 C 57 % 1012,3 hPa 0,0 l/m 1,8 km/h (1 Bft) N-NO 22 5,2 C 13,6 C
03.05.2012 02:46 13,4 C 57 % 1012,1 hPa 0,0 l/m 2,2 km/h (1 Bft) O-NO 67 5,1 C 13,4 C
03.05.2012 02:51 13,4 C 57 % 1012,3 hPa 0,0 l/m 2,9 km/h (1 Bft) O 90 5,1 C 13,4 C
03.05.2012 02:56 13,4 C 57 % 1012,1 hPa 0,0 l/m 8,3 km/h (2 Bft) O 90 5,1 C 13,4 C
03.05.2012 03:01 13,3 C 57 % 1012,1 hPa 0,0 l/m 2,5 km/h (1 Bft) O-NO 67 5,0 C 13,3 C
03.05.2012 03:06 13,2 C 57 % 1012,0 hPa 0,0 l/m 1,4 km/h (1 Bft) O-NO 67 4,9 C 13,2 C
03.05.2012 03:11 13,1 C 58 % 1011,9 hPa 0,0 l/m 11,2 km/h (2 Bft) O-SO 112 5,0 C 13,1 C
03.05.2012 03:16 13,0 C 58 % 1011,9 hPa 0,0 l/m 5,0 km/h (1 Bft) NO 45 4,9 C 13,0 C
03.05.2012 03:21 12,9 C 58 % 1012,0 hPa 0,0 l/m 3,2 km/h (1 Bft) O 90 4,8 C 12,9 C
03.05.2012 03:26 12,9 C 58 % 1011,8 hPa 0,0 l/m 3,2 km/h (1 Bft) NO 45 4,8 C 12,9 C
03.05.2012 03:31 12,8 C 58 % 1012,0 hPa 0,0 l/m 5,8 km/h (2 Bft) O-NO 67 4,7 C 12,8 C
03.05.2012 03:36 12,8 C 58 % 1011,7 hPa 0,0 l/m 5,0 km/h (1 Bft) O 90 4,7 C 12,8 C
03.05.2012 03:41 12,7 C 58 % 1011,7 hPa 0,0 l/m 4,0 km/h (1 Bft) NO 45 4,7 C 12,7 C
03.05.2012 03:46 12,7 C 58 % 1011,6 hPa 0,0 l/m 7,2 km/h (2 Bft) O-SO 112 4,7 C 12,7 C
03.05.2012 03:51 12,7 C 59 % 1011,6 hPa 0,0 l/m 2,9 km/h (1 Bft) O 90 4,9 C 12,7 C
03.05.2012 03:56 12,8 C 59 % 1011,6 hPa 0,0 l/m 5,0 km/h (1 Bft) O-NO 67 5,0 C 12,8 C
03.05.2012 04:01 12,8 C 60 % 1011,4 hPa 0,0 l/m 0,0 km/h (0 Bft) O 90 5,2 C 12,8 C
03.05.2012 04:06 12,8 C 60 % 1011,5 hPa 0,0 l/m 3,6 km/h (1 Bft) NO 45 5,2 C 12,8 C
03.05.2012 04:11 12,9 C 59 % 1011,6 hPa 0,0 l/m 0,0 km/h (0 Bft) O-NO 67 5,1 C 12,9 C
03.05.2012 04:16 12,9 C 59 % 1011,5 hPa 0,0 l/m 1,1 km/h (1 Bft) SO 135 5,1 C 12,9 C
03.05.2012 04:21 13,2 C 59 % 1011,6 hPa 0,0 l/m 0,0 km/h (0 Bft) SO 135 5,4 C 13,2 C
03.05.2012 04:26 13,4 C 59 % 1011,6 hPa 0,0 l/m 2,5 km/h (1 Bft) S 180 5,6 C 13,4 C
03.05.2012 04:31 13,5 C 59 % 1011,4 hPa 0,0 l/m 1,4 km/h (1 Bft) W 270 5,6 C 13,5 C
03.05.2012 04:36 13,5 C 59 % 1011,3 hPa 0,0 l/m 2,2 km/h (1 Bft) S 180 5,6 C 13,5 C
03.05.2012 04:41 13,6 C 59 % 1011,7 hPa 0,0 l/m 1,4 km/h (1 Bft) S 180 5,7 C 13,6 C
03.05.2012 04:46 13,6 C 59 % 1011,5 hPa 0,0 l/m 4,0 km/h (1 Bft) S 180 5,7 C 13,6 C
03.05.2012 04:51 13,6 C 59 % 1011,5 hPa 0,0 l/m 1,4 km/h (1 Bft) SO 135 5,7 C 13,6 C
03.05.2012 04:56 13,5 C 59 % 1011,4 hPa 0,0 l/m 2,5 km/h (1 Bft) S-SO 157 5,6 C 13,5 C
03.05.2012 05:01 13,4 C 59 % 1011,3 hPa 0,0 l/m 0,0 km/h (0 Bft) O-SO 112 5,6 C 13,4 C
03.05.2012 05:06 13,3 C 59 % 1011,4 hPa 0,0 l/m 1,4 km/h (1 Bft) S 180 5,5 C 13,3 C
03.05.2012 05:11 13,3 C 60 % 1011,3 hPa 0,0 l/m 0,0 km/h (0 Bft) S-SO 157 5,7 C 13,3 C
03.05.2012 05:16 13,3 C 60 % 1011,0 hPa 0,0 l/m 2,2 km/h (1 Bft) O 90 5,7 C 13,3 C
03.05.2012 05:21 13,2 C 59 % 1011,0 hPa 0,0 l/m 1,1 km/h (1 Bft) SO 135 5,4 C 13,2 C
03.05.2012 05:26 13,1 C 59 % 1011,0 hPa 0,0 l/m 1,4 km/h (1 Bft) SO 135 5,3 C 13,1 C
03.05.2012 05:31 13,1 C 60 % 1011,0 hPa 0,0 l/m 2,2 km/h (1 Bft) S-SO 157 5,5 C 13,1 C
03.05.2012 05:36 13,1 C 60 % 1011,1 hPa 0,0 l/m 2,2 km/h (1 Bft) SO 135 5,5 C 13,1 C
03.05.2012 05:41 13,0 C 60 % 1011,0 hPa 0,0 l/m 1,8 km/h (1 Bft) S-SO 157 5,4 C 13,0 C
03.05.2012 05:46 13,1 C 60 % 1011,1 hPa 0,0 l/m 0,0 km/h (0 Bft) SO 135 5,5 C 13,1 C
03.05.2012 05:51 13,0 C 60 % 1011,0 hPa 0,0 l/m 0,0 km/h (0 Bft) SO 135 5,4 C 13,0 C
03.05.2012 05:56 12,9 C 60 % 1011,1 hPa 0,0 l/m 1,8 km/h (1 Bft) SO 135 5,3 C 12,9 C
03.05.2012 06:01 12,9 C 60 % 1011,1 hPa 0,0 l/m 3,6 km/h (1 Bft) O-SO 112 5,3 C 12,9 C
03.05.2012 06:06 12,9 C 61 % 1011,1 hPa 0,0 l/m 4,3 km/h (1 Bft) O-NO 67 5,6 C 12,9 C
03.05.2012 06:11 12,8 C 61 % 1010,9 hPa 0,0 l/m 2,9 km/h (1 Bft) O-NO 67 5,5 C 12,8 C
03.05.2012 06:16 12,6 C 61 % 1010,9 hPa 0,0 l/m 2,9 km/h (1 Bft) O-NO 67 5,3 C 12,6 C
03.05.2012 06:21 12,5 C 62 % 1010,8 hPa 0,0 l/m 3,6 km/h (1 Bft) O 90 5,4 C 12,5 C
03.05.2012 06:26 12,4 C 62 % 1010,8 hPa 0,0 l/m 3,2 km/h (1 Bft) O-NO 67 5,3 C 12,4 C
03.05.2012 06:31 12,5 C 62 % 1010,6 hPa 0,0 l/m 3,6 km/h (1 Bft) NO 45 5,4 C 12,5 C
03.05.2012 06:36 12,5 C 63 % 1010,6 hPa 0,0 l/m 0,0 km/h (0 Bft) N-NO 22 5,7 C 12,5 C
03.05.2012 06:41 12,6 C 63 % 1010,5 hPa 0,0 l/m 3,2 km/h (1 Bft) O-NO 67 5,7 C 12,6 C
03.05.2012 06:46 12,8 C 62 % 1010,5 hPa 0,0 l/m 0,0 km/h (0 Bft) O 90 5,7 C 12,8 C
03.05.2012 06:51 12,8 C 62 % 1010,6 hPa 0,0 l/m 0,0 km/h (0 Bft) O-SO 112 5,7 C 12,8 C
03.05.2012 06:56 12,9 C 61 % 1010,6 hPa 0,0 l/m 0,0 km/h (0 Bft) NO 45 5,6 C 12,9 C
03.05.2012 07:01 12,9 C 61 % 1010,6 hPa 0,0 l/m 2,5 km/h (1 Bft) O-NO 67 5,6 C 12,9 C
03.05.2012 07:06 13,0 C 62 % 1010,5 hPa 0,0 l/m 0,0 km/h (0 Bft) N 360 5,9 C 13,0 C
03.05.2012 07:11 12,9 C 62 % 1010,6 hPa 0,0 l/m 2,2 km/h (1 Bft) W 270 5,8 C 12,9 C
03.05.2012 07:16 13,2 C 63 % 1010,6 hPa 0,0 l/m 0,0 km/h (0 Bft) W 270 6,3 C 13,2 C
03.05.2012 07:21 13,3 C 63 % 1010,7 hPa 0,0 l/m 2,5 km/h (1 Bft) W-NW 292 6,4 C 13,3 C
03.05.2012 07:26 13,5 C 63 % 1010,8 hPa 0,0 l/m 2,2 km/h (1 Bft) W-SW 247 6,6 C 13,5 C
03.05.2012 07:31 13,5 C 63 % 1010,8 hPa 0,0 l/m 5,4 km/h (1 Bft) W-NW 292 6,6 C 13,5 C
03.05.2012 07:36 13,6 C 63 % 1010,9 hPa 0,0 l/m 6,1 km/h (2 Bft) W-NW 292 6,7 C 13,6 C
03.05.2012 07:41 13,6 C 64 % 1010,8 hPa 0,0 l/m 5,0 km/h (1 Bft) W-NW 292 6,9 C 13,6 C
03.05.2012 07:46 13,5 C 64 % 1010,9 hPa 0,0 l/m 3,6 km/h (1 Bft) NW 315 6,8 C 13,5 C
03.05.2012 07:51 13,5 C 65 % 1010,8 hPa 0,0 l/m 7,6 km/h (2 Bft) W 270 7,1 C 13,5 C
03.05.2012 07:56 13,4 C 65 % 1010,9 hPa 0,0 l/m 4,3 km/h (1 Bft) W 270 7,0 C 13,4 C
03.05.2012 08:01 13,3 C 65 % 1011,0 hPa 0,0 l/m 6,1 km/h (2 Bft) W 270 6,9 C 13,3 C
03.05.2012 08:06 13,3 C 65 % 1011,0 hPa 0,0 l/m 6,8 km/h (2 Bft) W-NW 292 6,9 C 13,3 C
03.05.2012 08:11 13,4 C 65 % 1011,0 hPa 0,0 l/m 4,0 km/h (1 Bft) W 270 7,0 C 13,4 C
03.05.2012 08:16 13,5 C 65 % 1011,0 hPa 0,0 l/m 3,6 km/h (1 Bft) W-NW 292 7,1 C 13,5 C
03.05.2012 08:21 13,6 C 65 % 1011,0 hPa 0,0 l/m 7,2 km/h (2 Bft) W-NW 292 7,1 C 13,6 C
03.05.2012 08:26 13,6 C 64 % 1011,1 hPa 0,0 l/m 5,0 km/h (1 Bft) W 270 6,9 C 13,6 C
03.05.2012 08:31 13,6 C 64 % 1011,0 hPa 0,0 l/m 2,9 km/h (1 Bft) W 270 6,9 C 13,6 C
03.05.2012 08:36 13,6 C 64 % 1011,2 hPa 0,0 l/m 4,0 km/h (1 Bft) W-SW 247 6,9 C 13,6 C
03.05.2012 08:41 13,8 C 64 % 1011,2 hPa 0,0 l/m 2,2 km/h (1 Bft) W 270 7,1 C 13,8 C
03.05.2012 08:46 13,8 C 63 % 1011,2 hPa 0,0 l/m 7,2 km/h (2 Bft) NW 315 6,9 C 13,8 C
03.05.2012 08:51 13,9 C 63 % 1011,2 hPa 0,0 l/m 0,0 km/h (0 Bft) NW 315 7,0 C 13,9 C
03.05.2012 08:56 13,9 C 62 % 1011,2 hPa 0,0 l/m 0,0 km/h (0 Bft) W-NW 292 6,7 C 13,9 C
03.05.2012 09:01 13,9 C 62 % 1011,1 hPa 0,0 l/m 0,0 km/h (0 Bft) W 270 6,7 C 13,9 C
03.05.2012 09:06 13,9 C 63 % 1011,2 hPa 0,0 l/m 3,6 km/h (1 Bft) W 270 7,0 C 13,9 C
03.05.2012 09:11 14,1 C 63 % 1011,0 hPa 0,0 l/m 0,0 km/h (0 Bft) W 270 7,2 C 14,1 C
03.05.2012 09:16 14,1 C 63 % 1011,1 hPa 0,0 l/m 2,5 km/h (1 Bft) W 270 7,2 C 14,1 C
03.05.2012 09:21 14,1 C 63 % 1011,2 hPa 0,0 l/m 6,5 km/h (2 Bft) W 270 7,2 C 14,1 C
03.05.2012 09:26 14,1 C 63 % 1011,1 hPa 0,0 l/m 3,6 km/h (1 Bft) W-NW 292 7,2 C 14,1 C
03.05.2012 09:31 14,2 C 63 % 1011,1 hPa 0,0 l/m 2,9 km/h (1 Bft) W 270 7,3 C 14,2 C
03.05.2012 09:36 14,3 C 63 % 1011,2 hPa 0,0 l/m 3,2 km/h (1 Bft) W-NW 292 7,4 C 14,3 C
03.05.2012 09:41 14,4 C 62 % 1011,3 hPa 0,0 l/m 0,0 km/h (0 Bft) W-NW 292 7,2 C 14,4 C
03.05.2012 09:46 14,6 C 61 % 1011,3 hPa 0,0 l/m 1,8 km/h (1 Bft) NW 315 7,2 C 14,6 C
03.05.2012 09:51 14,7 C 61 % 1011,3 hPa 0,0 l/m 0,0 km/h (0 Bft) N 360 7,3 C 14,7 C
03.05.2012 09:56 14,9 C 61 % 1011,4 hPa 0,0 l/m 0,0 km/h (0 Bft) N-NW 337 7,4 C 14,9 C
03.05.2012 10:01 14,9 C 60 % 1011,5 hPa 0,0 l/m 0,0 km/h (0 Bft) N-NO 22 7,2 C 14,9 C
03.05.2012 10:06 14,9 C 60 % 1011,5 hPa 0,0 l/m 0,0 km/h (0 Bft) N-NW 337 7,2 C 14,9 C
03.05.2012 10:11 14,9 C 60 % 1011,5 hPa 0,0 l/m 2,5 km/h (1 Bft) N-NO 22 7,2 C 14,9 C
03.05.2012 10:16 14,9 C 60 % 1011,5 hPa 0,0 l/m 1,8 km/h (1 Bft) W-SW 247 7,2 C 14,9 C
03.05.2012 10:21 15,2 C 61 % 1011,6 hPa 0,0 l/m 1,1 km/h (1 Bft) W-SW 247 7,7 C 15,2 C
03.05.2012 10:26 15,3 C 61 % 1011,5 hPa 0,0 l/m 2,5 km/h (1 Bft) W 270 7,8 C 15,3 C
03.05.2012 10:31 15,3 C 61 % 1011,6 hPa 0,0 l/m 2,9 km/h (1 Bft) W-NW 292 7,8 C 15,3 C
03.05.2012 10:36 15,4 C 61 % 1011,6 hPa 0,0 l/m 2,9 km/h (1 Bft) N-NW 337 7,9 C 15,4 C
03.05.2012 10:41 15,5 C 60 % 1011,7 hPa 0,0 l/m 2,5 km/h (1 Bft) W-NW 292 7,8 C 15,5 C
03.05.2012 10:46 15,5 C 60 % 1011,7 hPa 0,0 l/m 1,4 km/h (1 Bft) N-NW 337 7,8 C 15,5 C
03.05.2012 10:51 15,5 C 60 % 1011,7 hPa 0,0 l/m 3,2 km/h (1 Bft) W 270 7,8 C 15,5 C
03.05.2012 10:56 15,6 C 60 % 1011,7 hPa 0,0 l/m 2,9 km/h (1 Bft) W 270 7,9 C 15,6 C
03.05.2012 11:01 15,6 C 60 % 1011,6 hPa 0,0 l/m 1,8 km/h (1 Bft) W-NW 292 7,9 C 15,6 C
03.05.2012 11:06 15,8 C 61 % 1011,7 hPa 0,0 l/m 1,1 km/h (1 Bft) N 360 8,3 C 15,8 C
03.05.2012 11:11 15,6 C 60 % 1011,7 hPa 0,0 l/m 2,5 km/h (1 Bft) N-NO 22 7,9 C 15,6 C
03.05.2012 11:16 15,4 C 61 % 1011,6 hPa 0,0 l/m 0,0 km/h (0 Bft) N-NO 22 7,9 C 15,4 C
03.05.2012 11:21 15,3 C 61 % 1011,5 hPa 0,0 l/m 2,2 km/h (1 Bft) N-NO 22 7,8 C 15,3 C
03.05.2012 11:26 15,2 C 62 % 1011,6 hPa 0,0 l/m 0,0 km/h (0 Bft) N 360 8,0 C 15,2 C
03.05.2012 11:31 15,1 C 62 % 1011,6 hPa 0,0 l/m 0,0 km/h (0 Bft) NW 315 7,9 C 15,1 C
03.05.2012 11:36 15,3 C 62 % 1011,6 hPa 0,0 l/m 0,0 km/h (0 Bft) W-NW 292 8,1 C 15,3 C
03.05.2012 11:41 15,3 C 62 % 1011,6 hPa 0,0 l/m 3,2 km/h (1 Bft) N-NO 22 8,1 C 15,3 C
03.05.2012 11:46 15,3 C 62 % 1011,7 hPa 0,0 l/m 0,0 km/h (0 Bft) NW 315 8,1 C 15,3 C
03.05.2012 11:51 15,4 C 63 % 1011,6 hPa 0,0 l/m 0,0 km/h (0 Bft) W 270 8,4 C 15,4 C
03.05.2012 11:56 15,5 C 63 % 1011,6 hPa 0,0 l/m 1,4 km/h (1 Bft) W-NW 292 8,5 C 15,5 C
03.05.2012 12:01 15,6 C 63 % 1011,6 hPa 0,0 l/m 1,8 km/h (1 Bft) N-NO 22 8,6 C 15,6 C
03.05.2012 12:06 15,6 C 63 % 1011,6 hPa 0,0 l/m 4,0 km/h (1 Bft) NO 45 8,6 C 15,6 C
03.05.2012 12:11 15,4 C 63 % 1011,5 hPa 0,0 l/m 1,4 km/h (1 Bft) N-NO 22 8,4 C 15,4 C
03.05.2012 12:16 15,4 C 63 % 1011,5 hPa 0,0 l/m 2,5 km/h (1 Bft) NO 45 8,4 C 15,4 C
03.05.2012 12:21 15,5 C 63 % 1011,4 hPa 0,0 l/m 0,0 km/h (0 Bft) O-NO 67 8,5 C 15,5 C
03.05.2012 12:26 15,6 C 63 % 1011,5 hPa 0,0 l/m 1,8 km/h (1 Bft) NW 315 8,6 C 15,6 C
03.05.2012 12:31 15,8 C 63 % 1011,4 hPa 0,0 l/m 0,0 km/h (0 Bft) NW 315 8,8 C 15,8 C
03.05.2012 12:36 16,0 C 63 % 1011,3 hPa 0,0 l/m 1,1 km/h (1 Bft) W 270 9,0 C 16,0 C
03.05.2012 12:41 16,2 C 62 % 1011,2 hPa 0,0 l/m 0,0 km/h (0 Bft) W 270 8,9 C 16,2 C
03.05.2012 12:46 16,3 C 63 % 1011,1 hPa 0,0 l/m 0,0 km/h (0 Bft) W 270 9,2 C 16,3 C
03.05.2012 12:51 16,4 C 63 % 1011,0 hPa 0,0 l/m 0,0 km/h (0 Bft) W 270 9,3 C 16,4 C
03.05.2012 12:56 16,4 C 62 % 1011,0 hPa 0,0 l/m 0,0 km/h (0 Bft) N-NO 22 9,1 C 16,4 C
03.05.2012 13:01 16,3 C 63 % 1011,0 hPa 0,0 l/m 1,8 km/h (1 Bft) NO 45 9,2 C 16,3 C
03.05.2012 13:06 16,1 C 63 % 1010,9 hPa 0,0 l/m 0,0 km/h (0 Bft) NO 45 9,1 C 16,1 C
03.05.2012 13:11 15,9 C 64 % 1011,0 hPa 0,0 l/m 0,0 km/h (0 Bft) N 360 9,1 C 15,9 C
03.05.2012 13:16 15,9 C 64 % 1010,9 hPa 0,0 l/m 0,0 km/h (0 Bft) NO 45 9,1 C 15,9 C
03.05.2012 13:21 16,0 C 65 % 1011,0 hPa 0,0 l/m 1,1 km/h (1 Bft) O-NO 67 9,4 C 16,0 C
03.05.2012 13:26 15,9 C 66 % 1010,9 hPa 0,0 l/m 2,5 km/h (1 Bft) SO 135 9,6 C 15,9 C
03.05.2012 13:31 15,9 C 68 % 1010,9 hPa 0,0 l/m 1,1 km/h (1 Bft) SO 135 10,0 C 15,9 C
03.05.2012 13:36 15,9 C 69 % 1010,8 hPa 0,0 l/m 0,0 km/h (0 Bft) SO 135 10,2 C 15,9 C
03.05.2012 13:41 15,9 C 70 % 1010,9 hPa 0,0 l/m 0,0 km/h (0 Bft) O-SO 112 10,4 C 15,9 C
03.05.2012 13:46 15,8 C 70 % 1010,8 hPa 0,0 l/m 0,0 km/h (0 Bft) O-SO 112 10,3 C 15,8 C
03.05.2012 13:51 15,8 C 70 % 1010,9 hPa 0,0 l/m 0,0 km/h (0 Bft) O-SO 112 10,3 C 15,8 C
03.05.2012 13:56 15,8 C 71 % 1010,8 hPa 0,0 l/m 4,7 km/h (1 Bft) O 90 10,6 C 15,8 C
03.05.2012 14:01 15,9 C 72 % 1010,7 hPa 0,0 l/m 3,6 km/h (1 Bft) O-NO 67 10,9 C 15,9 C
03.05.2012 14:06 15,9 C 71 % 1010,8 hPa 0,0 l/m 1,8 km/h (1 Bft) O-SO 112 10,6 C 15,9 C
03.05.2012 14:11 15,9 C 71 % 1010,8 hPa 0,0 l/m 3,6 km/h (1 Bft) O 90 10,6 C 15,9 C
03.05.2012 14:16 15,9 C 70 % 1010,6 hPa 0,0 l/m 2,9 km/h (1 Bft) O 90 10,4 C 15,9 C
03.05.2012 14:21 15,9 C 70 % 1010,7 hPa 0,0 l/m 3,2 km/h (1 Bft) O-NO 67 10,4 C 15,9 C
03.05.2012 14:26 16,0 C 70 % 1010,5 hPa 0,0 l/m 5,0 km/h (1 Bft) O-NO 67 10,5 C 16,0 C
03.05.2012 14:31 16,1 C 70 % 1010,5 hPa 0,0 l/m 3,2 km/h (1 Bft) O 90 10,6 C 16,1 C
03.05.2012 14:36 16,1 C 70 % 1010,4 hPa 0,0 l/m 6,1 km/h (2 Bft) O 90 10,6 C 16,1 C
03.05.2012 14:41 16,3 C 70 % 1010,4 hPa 0,0 l/m 5,0 km/h (1 Bft) O-SO 112 10,8 C 16,3 C
03.05.2012 14:46 16,4 C 71 % 1010,4 hPa 0,0 l/m 0,0 km/h (0 Bft) O 90 11,1 C 16,4 C
03.05.2012 14:51 16,5 C 70 % 1010,5 hPa 0,0 l/m 4,0 km/h (1 Bft) O-SO 112 11,0 C 16,5 C
03.05.2012 14:56 16,6 C 69 % 1010,3 hPa 0,0 l/m 4,7 km/h (1 Bft) O 90 10,9 C 16,6 C
03.05.2012 15:01 16,8 C 68 % 1010,3 hPa 0,0 l/m 2,5 km/h (1 Bft) O-NO 67 10,9 C 16,8 C
03.05.2012 15:06 16,9 C 68 % 1010,2 hPa 0,0 l/m 4,0 km/h (1 Bft) O 90 11,0 C 16,9 C
03.05.2012 15:11 16,9 C 68 % 1010,0 hPa 0,0 l/m 3,6 km/h (1 Bft) NO 45 11,0 C 16,9 C
03.05.2012 15:16 17,1 C 68 % 1010,0 hPa 0,0 l/m 3,2 km/h (1 Bft) O-NO 67 11,1 C 17,1 C
03.05.2012 15:21 17,3 C 68 % 1010,0 hPa 0,0 l/m 0,0 km/h (0 Bft) O-NO 67 11,3 C 17,3 C
03.05.2012 15:26 17,3 C 68 % 1010,0 hPa 0,0 l/m 0,0 km/h (0 Bft) O-NO 67 11,3 C 17,3 C
03.05.2012 15:31 17,4 C 68 % 1009,9 hPa 0,0 l/m 0,0 km/h (0 Bft) O-NO 67 11,4 C 17,4 C
03.05.2012 15:36 17,4 C 68 % 1009,9 hPa 0,0 l/m 0,0 km/h (0 Bft) O-SO 112 11,4 C 17,4 C
03.05.2012 15:41 17,4 C 68 % 1009,9 hPa 0,0 l/m 0,0 km/h (0 Bft) SO 135 11,4 C 17,4 C
03.05.2012 15:46 17,4 C 69 % 1009,9 hPa 0,0 l/m 2,5 km/h (1 Bft) SO 135 11,7 C 17,4 C
03.05.2012 15:51 17,3 C 69 % 1009,8 hPa 0,0 l/m 1,1 km/h (1 Bft) SO 135 11,6 C 17,3 C
03.05.2012 15:56 17,4 C 68 % 1009,6 hPa 0,0 l/m 1,4 km/h (1 Bft) SO 135 11,4 C 17,4 C
03.05.2012 16:01 17,3 C 69 % 1009,4 hPa 0,0 l/m 1,4 km/h (1 Bft) O-SO 112 11,6 C 17,3 C
03.05.2012 16:06 17,4 C 69 % 1009,3 hPa 0,0 l/m 4,0 km/h (1 Bft) O-SO 112 11,7 C 17,4 C
03.05.2012 16:11 17,4 C 69 % 1009,2 hPa 0,0 l/m 2,9 km/h (1 Bft) SO 135 11,7 C 17,4 C
03.05.2012 16:16 17,6 C 68 % 1009,3 hPa 0,0 l/m 7,6 km/h (2 Bft) SO 135 11,6 C 17,6 C
03.05.2012 16:21 17,6 C 69 % 1009,5 hPa 0,0 l/m 3,6 km/h (1 Bft) SO 135 11,8 C 17,6 C
03.05.2012 16:26 17,8 C 69 % 1009,2 hPa 0,0 l/m 4,0 km/h (1 Bft) SO 135 12,0 C 17,8 C
03.05.2012 16:31 17,9 C 68 % 1009,2 hPa 0,0 l/m 3,6 km/h (1 Bft) O-SO 112 11,9 C 17,9 C
03.05.2012 16:36 17,9 C 68 % 1009,2 hPa 0,0 l/m 0,0 km/h (0 Bft) SO 135 11,9 C 17,9 C
03.05.2012 16:41 18,0 C 68 % 1009,2 hPa 0,0 l/m 2,2 km/h (1 Bft) S-SO 157 12,0 C 18,0 C
03.05.2012 16:46 18,2 C 68 % 1009,0 hPa 0,0 l/m 0,0 km/h (0 Bft) S-SO 157 12,2 C 18,2 C
03.05.2012 16:51 18,3 C 68 % 1009,1 hPa 0,0 l/m 0,0 km/h (0 Bft) SO 135 12,3 C 18,3 C
03.05.2012 16:56 18,4 C 68 % 1009,1 hPa 0,0 l/m 0,0 km/h (0 Bft) SO 135 12,4 C 18,4 C
03.05.2012 17:01 18,5 C 67 % 1008,9 hPa 0,0 l/m 1,4 km/h (1 Bft) S-SO 157 12,3 C 18,5 C
03.05.2012 17:06 18,6 C 67 % 1008,8 hPa 0,0 l/m 3,2 km/h (1 Bft) S-SO 157 12,3 C 18,6 C
03.05.2012 17:11 18,6 C 67 % 1008,8 hPa 0,0 l/m 2,5 km/h (1 Bft) O-SO 112 12,3 C 18,6 C
03.05.2012 17:16 18,6 C 67 % 1008,8 hPa 0,0 l/m 5,4 km/h (1 Bft) O-SO 112 12,3 C 18,6 C
03.05.2012 17:21 18,6 C 67 % 1008,7 hPa 0,0 l/m 4,0 km/h (1 Bft) S-SO 157 12,3 C 18,6 C
03.05.2012 17:26 18,7 C 67 % 1008,8 hPa 0,0 l/m 1,4 km/h (1 Bft) SO 135 12,4 C 18,7 C
03.05.2012 17:31 18,9 C 67 % 1008,9 hPa 0,0 l/m 3,6 km/h (1 Bft) S-SO 157 12,6 C 18,9 C
03.05.2012 17:36 18,9 C 67 % 1008,8 hPa 0,0 l/m 6,8 km/h (2 Bft) S-SO 157 12,6 C 18,9 C
03.05.2012 17:41 19,1 C 67 % 1008,8 hPa 0,0 l/m 3,2 km/h (1 Bft) S 180 12,8 C 19,1 C
03.05.2012 17:46 19,3 C 68 % 1008,6 hPa 0,0 l/m 1,1 km/h (1 Bft) S-SO 157 13,2 C 19,3 C
03.05.2012 17:51 19,6 C 67 % 1008,7 hPa 0,0 l/m 4,0 km/h (1 Bft) S-SO 157 13,3 C 19,6 C
03.05.2012 17:56 19,8 C 67 % 1008,5 hPa 0,0 l/m 1,8 km/h (1 Bft) S-SO 157 13,5 C 19,8 C
03.05.2012 18:01 19,9 C 66 % 1008,4 hPa 0,0 l/m 6,8 km/h (2 Bft) S-SO 157 13,4 C 19,9 C
03.05.2012 18:06 19,9 C 66 % 1008,5 hPa 0,0 l/m 6,5 km/h (2 Bft) SO 135 13,4 C 19,9 C
03.05.2012 18:11 19,9 C 66 % 1008,3 hPa 0,0 l/m 2,5 km/h (1 Bft) SO 135 13,4 C 19,9 C
03.05.2012 18:16 19,9 C 67 % 1008,4 hPa 0,0 l/m 2,9 km/h (1 Bft) S 180 13,6 C 19,9 C
03.05.2012 18:21 19,9 C 67 % 1008,2 hPa 0,0 l/m 3,6 km/h (1 Bft) S 180 13,6 C 19,9 C
03.05.2012 18:26 19,9 C 68 % 1008,3 hPa 0,0 l/m 7,2 km/h (2 Bft) S-SO 157 13,8 C 19,9 C
03.05.2012 18:31 19,9 C 68 % 1008,2 hPa 0,0 l/m 2,2 km/h (1 Bft) SW 225 13,8 C 19,9 C
03.05.2012 18:36 19,9 C 68 % 1008,2 hPa 0,0 l/m 6,1 km/h (2 Bft) S-SW 202 13,8 C 19,9 C
03.05.2012 18:41 19,9 C 69 % 1008,2 hPa 0,0 l/m 6,5 km/h (2 Bft) S-SW 202 14,0 C 19,9 C
03.05.2012 18:46 19,9 C 69 % 1008,3 hPa 0,0 l/m 3,2 km/h (1 Bft) W-SW 247 14,0 C 19,9 C
03.05.2012 18:51 19,9 C 69 % 1008,2 hPa 0,0 l/m 8,6 km/h (2 Bft) W 270 14,0 C 19,9 C
03.05.2012 18:56 19,9 C 67 % 1008,1 hPa 0,0 l/m 5,8 km/h (2 Bft) W-SW 247 13,6 C 19,9 C
03.05.2012 19:01 19,9 C 66 % 1008,1 hPa 0,0 l/m 3,2 km/h (1 Bft) W 270 13,4 C 19,9 C
03.05.2012 19:06 19,9 C 66 % 1008,1 hPa 0,0 l/m 5,4 km/h (1 Bft) NW 315 13,4 C 19,9 C
03.05.2012 19:11 19,9 C 66 % 1008,1 hPa 0,0 l/m 4,0 km/h (1 Bft) W-NW 292 13,4 C 19,9 C
03.05.2012 19:16 19,9 C 66 % 1008,2 hPa 0,0 l/m 1,1 km/h (1 Bft) W-SW 247 13,4 C 19,9 C
03.05.2012 19:21 19,8 C 66 % 1008,4 hPa 0,0 l/m 4,0 km/h (1 Bft) W 270 13,3 C 19,8 C
03.05.2012 19:26 19,8 C 66 % 1008,4 hPa 0,0 l/m 5,0 km/h (1 Bft) W-SW 247 13,3 C 19,8 C
03.05.2012 19:31 19,6 C 66 % 1008,4 hPa 0,0 l/m 3,2 km/h (1 Bft) W 270 13,1 C 19,6 C
03.05.2012 19:36 19,5 C 67 % 1008,3 hPa 0,0 l/m 5,0 km/h (1 Bft) W-SW 247 13,2 C 19,5 C
03.05.2012 19:41 19,4 C 67 % 1008,2 hPa 0,0 l/m 4,0 km/h (1 Bft) W 270 13,1 C 19,4 C
03.05.2012 19:46 19,3 C 67 % 1008,2 hPa 0,0 l/m 4,0 km/h (1 Bft) W 270 13,0 C 19,3 C
03.05.2012 19:51 19,3 C 67 % 1008,2 hPa 0,0 l/m 3,2 km/h (1 Bft) W-SW 247 13,0 C 19,3 C
03.05.2012 19:56 19,2 C 68 % 1008,3 hPa 0,0 l/m 5,8 km/h (2 Bft) W 270 13,1 C 19,2 C
03.05.2012 20:01 19,1 C 67 % 1008,4 hPa 0,0 l/m 2,5 km/h (1 Bft) W-SW 247 12,8 C 19,1 C
03.05.2012 20:06 19,1 C 68 % 1008,4 hPa 0,0 l/m 5,0 km/h (1 Bft) W 270 13,1 C 19,1 C
03.05.2012 20:11 19,0 C 68 % 1008,4 hPa 0,0 l/m 6,5 km/h (2 Bft) W-NW 292 13,0 C 19,0 C
03.05.2012 20:16 19,0 C 68 % 1008,5 hPa 0,0 l/m 2,5 km/h (1 Bft) W 270 13,0 C 19,0 C
03.05.2012 20:21 18,9 C 68 % 1008,5 hPa 0,0 l/m 4,3 km/h (1 Bft) W-SW 247 12,9 C 18,9 C
03.05.2012 20:26 18,9 C 69 % 1008,5 hPa 0,0 l/m 4,7 km/h (1 Bft) W-SW 247 13,1 C 18,9 C
03.05.2012 20:31 18,9 C 69 % 1008,6 hPa 0,0 l/m 2,9 km/h (1 Bft) W-SW 247 13,1 C 18,9 C
03.05.2012 20:36 18,8 C 69 % 1008,5 hPa 0,0 l/m 6,1 km/h (2 Bft) W-SW 247 13,0 C 18,8 C
03.05.2012 20:41 18,7 C 70 % 1008,4 hPa 0,0 l/m 2,5 km/h (1 Bft) W 270 13,1 C 18,7 C
03.05.2012 20:46 18,6 C 70 % 1008,5 hPa 0,0 l/m 2,9 km/h (1 Bft) W-SW 247 13,0 C 18,6 C
03.05.2012 20:51 18,6 C 70 % 1008,4 hPa 0,0 l/m 5,0 km/h (1 Bft) W-SW 247 13,0 C 18,6 C
03.05.2012 20:56 18,4 C 70 % 1008,5 hPa 0,0 l/m 3,6 km/h (1 Bft) W-SW 247 12,8 C 18,4 C
03.05.2012 21:01 18,4 C 70 % 1008,6 hPa 0,0 l/m 6,1 km/h (2 Bft) W-SW 247 12,8 C 18,4 C
03.05.2012 21:06 18,3 C 71 % 1008,7 hPa 0,0 l/m 7,6 km/h (2 Bft) W-SW 247 12,9 C 18,3 C
03.05.2012 21:11 18,2 C 71 % 1008,7 hPa 0,0 l/m 7,2 km/h (2 Bft) W-SW 247 12,9 C 18,2 C
03.05.2012 21:16 18,2 C 71 % 1008,7 hPa 0,0 l/m 0,0 km/h (0 Bft) W 270 12,9 C 18,2 C
03.05.2012 21:21 18,1 C 72 % 1008,7 hPa 0,0 l/m 2,9 km/h (1 Bft) W 270 13,0 C 18,1 C
03.05.2012 21:26 18,0 C 72 % 1008,7 hPa 0,0 l/m 4,0 km/h (1 Bft) W 270 12,9 C 18,0 C
03.05.2012 21:31 17,9 C 72 % 1008,7 hPa 0,0 l/m 4,7 km/h (1 Bft) W 270 12,8 C 17,9 C
03.05.2012 21:36 17,9 C 72 % 1008,7 hPa 0,0 l/m 1,8 km/h (1 Bft) W 270 12,8 C 17,9 C
03.05.2012 21:41 17,9 C 72 % 1008,7 hPa 0,0 l/m 3,6 km/h (1 Bft) W 270 12,8 C 17,9 C
03.05.2012 21:46 17,8 C 73 % 1008,4 hPa 0,0 l/m 7,6 km/h (2 Bft) W 270 12,9 C 17,8 C
03.05.2012 21:51 17,8 C 73 % 1008,3 hPa 0,0 l/m 7,6 km/h (2 Bft) W-SW 247 12,9 C 17,8 C
03.05.2012 21:56 17,8 C 73 % 1008,4 hPa 0,0 l/m 4,7 km/h (1 Bft) W-SW 247 12,9 C 17,8 C
03.05.2012 22:01 17,7 C 73 % 1008,4 hPa 0,0 l/m 3,2 km/h (1 Bft) W 270 12,8 C 17,7 C
03.05.2012 22:06 17,6 C 73 % 1008,5 hPa 0,0 l/m 2,5 km/h (1 Bft) W 270 12,7 C 17,6 C
03.05.2012 22:11 17,6 C 73 % 1008,4 hPa 0,0 l/m 4,7 km/h (1 Bft) W-NW 292 12,7 C 17,6 C
03.05.2012 22:16 17,6 C 73 % 1008,3 hPa 0,0 l/m 6,1 km/h (2 Bft) W 270 12,7 C 17,6 C
03.05.2012 22:21 17,5 C 73 % 1008,3 hPa 0,0 l/m 4,0 km/h (1 Bft) W 270 12,6 C 17,5 C
03.05.2012 22:26 17,5 C 74 % 1008,3 hPa 0,0 l/m 4,3 km/h (1 Bft) W 270 12,8 C 17,5 C
03.05.2012 22:31 17,4 C 74 % 1008,4 hPa 0,0 l/m 7,6 km/h (2 Bft) W 270 12,7 C 17,4 C
03.05.2012 22:36 17,3 C 74 % 1008,4 hPa 0,0 l/m 1,4 km/h (1 Bft) W-NW 292 12,6 C 17,3 C
03.05.2012 22:41 17,3 C 74 % 1008,4 hPa 0,0 l/m 7,2 km/h (2 Bft) W-NW 292 12,6 C 17,3 C
03.05.2012 22:46 17,3 C 74 % 1008,4 hPa 0,0 l/m 3,2 km/h (1 Bft) W-NW 292 12,6 C 17,3 C
03.05.2012 22:51 17,3 C 74 % 1008,4 hPa 0,0 l/m 6,1 km/h (2 Bft) W-SW 247 12,6 C 17,3 C
03.05.2012 22:56 17,2 C 74 % 1008,5 hPa 0,0 l/m 5,4 km/h (1 Bft) W 270 12,5 C 17,2 C
03.05.2012 23:01 17,1 C 74 % 1008,6 hPa 0,0 l/m 7,2 km/h (2 Bft) W 270 12,4 C 17,1 C
03.05.2012 23:06 17,1 C 74 % 1008,6 hPa 0,0 l/m 6,1 km/h (2 Bft) W 270 12,4 C 17,1 C
03.05.2012 23:11 17,1 C 74 % 1008,6 hPa 0,0 l/m 9,4 km/h (2 Bft) W 270 12,4 C 17,1 C
03.05.2012 23:16 17,0 C 74 % 1008,5 hPa 0,0 l/m 2,2 km/h (1 Bft) W-NW 292 12,3 C 17,0 C
03.05.2012 23:21 17,0 C 74 % 1008,4 hPa 0,0 l/m 3,2 km/h (1 Bft) W-NW 292 12,3 C 17,0 C
03.05.2012 23:26 16,9 C 74 % 1008,4 hPa 0,0 l/m 11,2 km/h (2 Bft) W 270 12,2 C 16,9 C
03.05.2012 23:31 16,9 C 74 % 1008,4 hPa 0,0 l/m 4,7 km/h (1 Bft) W 270 12,2 C 16,9 C
03.05.2012 23:36 16,9 C 74 % 1008,5 hPa 0,0 l/m 11,5 km/h (2 Bft) NW 315 12,2 C 16,9 C
03.05.2012 23:41 16,9 C 74 % 1008,2 hPa 0,0 l/m 5,4 km/h (1 Bft) W-NW 292 12,2 C 16,9 C
03.05.2012 23:46 16,8 C 74 % 1008,5 hPa 0,0 l/m 9,0 km/h (2 Bft) NW 315 12,1 C 16,8 C
03.05.2012 23:51 16,8 C 74 % 1008,3 hPa 0,0 l/m 2,9 km/h (1 Bft) W 270 12,1 C 16,8 C
03.05.2012 23:56 16,8 C 74 % 1008,2 hPa 0,0 l/m 4,3 km/h (1 Bft) W-NW 292 12,1 C 16,8 C
_ Min-Zeit 06:26 00:01 18:56 - 00:11 - - 03:41 06:26
Minimum _ 12,4 C 51 % 1008,1 hPa - 0,0 km/h (0 Bft) - - 4,7 C 12,4 C
_ Max-Zeit 18:01 22:26 00:41 00:01 23:36 - - 18:41 18:01
Maximum _ 19,9 C 74 % 1013,8 hPa 0,0 l/m 11,5 km/h
NW (2 Bft)
- - 14,0 C 19,9 C
Durchschnitt _ 15,8 C 64 % 1010,5 hPa #0,0 l/m 2,9 km/h (1 Bft) W - 9,0 C 15,8 C
(c) by David Heller